Mayville, New York
Current Conditions -  °F | °C
As of 8:55 AM on Thursday 30 Oct 2014 (Local Time) from KJHW Reporting Station
Overcast Overcast  
Wind Chill: 34°   Ceiling: 3000
Heat Index: 39°   Visibility: 10mi
Dew Point: 36°   Wind: 7mph
Humidity: 87%   Direction: 320°NW
Pressure: 30.06"   Gusts: NA
Location:  42.25°N, 79.5°W
Report Text: KJHW 301255Z AUTO 32006KT 10SM OVC030 04/02 A3006 RMK AO1
Loading
Personal Weather Stations






























Interactive Weather Map
Tropical Storm Tracking
New forecast layout! Learn more

10-Day Weather Forecast

Advertisements
Track Severe Weather on mobile